createdAt,value
2023-12-17T00:00:57.537Z,1015.31
2023-12-17T00:01:57.505Z,1015.29
2023-12-17T00:03:17.162Z,1015.21
2023-12-17T00:03:58.562Z,1015.23
2023-12-17T00:04:57.538Z,1015.21
2023-12-17T00:05:57.613Z,1015.22
2023-12-17T00:06:57.512Z,1015.20
2023-12-17T00:07:57.489Z,1015.26
2023-12-17T00:08:57.471Z,1015.28
2023-12-17T00:09:57.454Z,1015.35
2023-12-17T00:10:57.494Z,1015.31
2023-12-17T00:11:57.469Z,1015.28
2023-12-17T00:12:57.452Z,1015.27
2023-12-17T00:13:57.430Z,1015.25
2023-12-17T00:14:57.459Z,1015.29
2023-12-17T00:15:57.414Z,1015.26
2023-12-17T00:16:57.447Z,1015.26
2023-12-17T00:17:57.544Z,1015.21
2023-12-17T00:18:57.500Z,1015.24
2023-12-17T00:19:57.450Z,1015.31
2023-12-17T00:20:57.425Z,1015.33
2023-12-17T00:21:57.376Z,1015.37
2023-12-17T00:22:57.401Z,1015.35
2023-12-17T00:23:57.552Z,1015.41
2023-12-17T00:24:57.353Z,1015.41
2023-12-17T00:25:57.358Z,1015.43
2023-12-17T00:26:57.370Z,1015.44
2023-12-17T00:27:57.377Z,1015.42
2023-12-17T00:28:57.340Z,1015.41
2023-12-17T00:29:57.345Z,1015.40
2023-12-17T00:30:57.358Z,1015.47
2023-12-17T00:32:00.918Z,1015.43
2023-12-17T00:32:57.406Z,1015.52
2023-12-17T00:33:57.564Z,1015.56
2023-12-17T00:34:57.280Z,1015.46
2023-12-17T00:35:57.294Z,1015.49
2023-12-17T00:36:57.286Z,1015.47
2023-12-17T00:37:57.279Z,1015.44
2023-12-17T00:38:57.273Z,1015.39
2023-12-17T00:39:57.608Z,1015.35
2023-12-17T00:40:57.293Z,1015.45
2023-12-17T00:41:57.273Z,1015.39
2023-12-17T00:42:57.266Z,1015.49
2023-12-17T00:43:57.231Z,1015.48
2023-12-17T00:44:57.294Z,1015.46
2023-12-17T00:45:57.215Z,1015.53
2023-12-17T00:46:57.217Z,1015.49
2023-12-17T00:47:57.340Z,1015.44
2023-12-17T00:48:57.339Z,1015.40
2023-12-17T00:49:57.236Z,1015.40
2023-12-17T00:50:57.233Z,1015.35
2023-12-17T00:51:57.181Z,1015.37
2023-12-17T00:52:57.160Z,1015.34
2023-12-17T00:53:57.192Z,1015.36
2023-12-17T00:54:57.173Z,1015.37
2023-12-17T00:55:57.206Z,1015.36
2023-12-17T00:56:57.213Z,1015.38
2023-12-17T00:57:57.138Z,1015.35
2023-12-17T00:58:57.155Z,1015.36
2023-12-17T00:59:57.151Z,1015.32
2023-12-17T01:00:57.222Z,1015.35
2023-12-17T01:01:57.112Z,1015.32
2023-12-17T01:02:57.186Z,1015.30
2023-12-17T01:03:57.135Z,1015.39
2023-12-17T01:04:57.081Z,1015.38
2023-12-17T01:05:57.230Z,1015.38
2023-12-17T01:06:57.073Z,1015.30
2023-12-17T01:07:57.081Z,1015.33
2023-12-17T01:08:57.129Z,1015.27
2023-12-17T01:09:57.132Z,1015.28
2023-12-17T01:10:57.112Z,1015.23
2023-12-17T01:11:57.104Z,1015.29
2023-12-17T01:12:57.036Z,1015.29
2023-12-17T01:13:57.061Z,1015.30
2023-12-17T01:14:57.092Z,1015.41
2023-12-17T01:15:57.208Z,1015.29
2023-12-17T01:16:57.057Z,1015.30
2023-12-17T01:17:57.196Z,1015.30
2023-12-17T01:18:57.092Z,1015.27
2023-12-17T01:19:57.257Z,1015.31
2023-12-17T01:20:57.012Z,1015.34
2023-12-17T01:21:56.975Z,1015.36
2023-12-17T01:22:57.015Z,1015.30
2023-12-17T01:23:56.984Z,1015.27
2023-12-17T01:24:56.959Z,1015.29
2023-12-17T01:25:56.955Z,1015.28
2023-12-17T01:26:57.038Z,1015.28
2023-12-17T01:27:56.980Z,1015.24
2023-12-17T01:28:56.932Z,1015.24
2023-12-17T01:29:56.970Z,1015.25
2023-12-17T01:30:56.957Z,1015.25
2023-12-17T01:31:56.907Z,1015.18
2023-12-17T01:32:57.070Z,1015.14
2023-12-17T01:33:57.032Z,1015.16
2023-12-17T01:34:56.908Z,1015.19
2023-12-17T01:35:56.903Z,1015.22
2023-12-17T01:36:56.874Z,1015.25
2023-12-17T01:37:56.872Z,1015.27
2023-12-17T01:38:56.962Z,1015.28
2023-12-17T01:39:56.862Z,1015.24
2023-12-17T01:40:56.856Z,1015.35
2023-12-17T01:41:56.971Z,1015.30
2023-12-17T01:42:56.833Z,1015.31
2023-12-17T01:43:56.862Z,1015.27
2023-12-17T01:44:56.915Z,1015.28
2023-12-17T01:45:56.821Z,1015.32
2023-12-17T01:46:56.807Z,1015.34
2023-12-17T01:47:56.936Z,1015.35
2023-12-17T01:48:56.883Z,1015.33
2023-12-17T01:49:56.854Z,1015.31
2023-12-17T01:50:56.841Z,1015.21
2023-12-17T01:51:56.778Z,1015.17
2023-12-17T01:52:56.799Z,1015.22
2023-12-17T01:53:56.789Z,1015.24
2023-12-17T01:54:56.802Z,1015.17
2023-12-17T01:55:56.758Z,1015.26
2023-12-17T01:56:56.789Z,1015.25
2023-12-17T01:57:56.739Z,1015.30
2023-12-17T01:58:56.723Z,1015.27
2023-12-17T01:59:56.768Z,1015.30
2023-12-17T02:00:57.017Z,1015.35
2023-12-17T02:01:56.740Z,1015.34
2023-12-17T02:02:56.814Z,1015.37
2023-12-17T02:03:56.796Z,1015.37
2023-12-17T02:04:56.683Z,1015.31
2023-12-17T02:05:56.777Z,1015.33
2023-12-17T02:06:56.794Z,1015.34
2023-12-17T02:07:56.681Z,1015.36
2023-12-17T02:08:56.705Z,1015.30
2023-12-17T02:09:56.941Z,1015.32
2023-12-17T02:10:56.669Z,1015.31
2023-12-17T02:11:56.671Z,1015.24
2023-12-17T02:12:56.641Z,1015.29
2023-12-17T02:13:56.631Z,1015.35
2023-12-17T02:14:56.680Z,1015.40
2023-12-17T02:15:56.660Z,1015.39
2023-12-17T02:16:56.614Z,1015.46
2023-12-17T02:17:56.769Z,1015.48
2023-12-17T02:18:56.747Z,1015.52
2023-12-17T02:19:56.635Z,1015.41
2023-12-17T02:20:56.990Z,1015.48
2023-12-17T02:21:56.589Z,1015.52
2023-12-17T02:22:56.582Z,1015.46
2023-12-17T02:23:56.586Z,1015.48
2023-12-17T02:24:56.584Z,1015.43
2023-12-17T02:25:56.587Z,1015.49
2023-12-17T02:26:56.642Z,1015.42
2023-12-17T02:27:56.551Z,1015.49
2023-12-17T02:28:56.540Z,1015.50
2023-12-17T02:29:56.619Z,1015.43
2023-12-17T02:30:56.596Z,1015.38
2023-12-17T02:31:56.556Z,1015.38
2023-12-17T02:32:56.609Z,1015.40
2023-12-17T02:33:56.638Z,1015.33
2023-12-17T02:34:56.504Z,1015.35
2023-12-17T02:35:56.519Z,1015.35
2023-12-17T02:36:56.525Z,1015.30
2023-12-17T02:37:56.487Z,1015.28
2023-12-17T02:38:56.544Z,1015.28
2023-12-17T02:39:56.465Z,1015.27
2023-12-17T02:40:56.480Z,1015.23
2023-12-17T02:41:56.502Z,1015.24
2023-12-17T02:42:56.506Z,1015.23
2023-12-17T02:43:56.446Z,1015.24
2023-12-17T02:44:56.483Z,1015.27
2023-12-17T02:45:56.430Z,1015.27
2023-12-17T02:46:56.449Z,1015.24
2023-12-17T02:47:56.520Z,1015.24
2023-12-17T02:48:56.884Z,1015.22
2023-12-17T02:49:56.486Z,1015.21
2023-12-17T02:50:56.409Z,1015.23
2023-12-17T02:51:56.423Z,1015.22
2023-12-17T02:52:56.384Z,1015.17
2023-12-17T02:53:56.442Z,1015.23
2023-12-17T02:54:56.754Z,1015.14
2023-12-17T02:55:56.384Z,1015.14
2023-12-17T02:56:56.387Z,1015.13
2023-12-17T02:57:56.350Z,1015.10
2023-12-17T02:58:56.371Z,1015.09
2023-12-17T02:59:56.384Z,1015.14
2023-12-17T03:00:56.358Z,1015.11
2023-12-17T03:01:56.326Z,1015.13
2023-12-17T03:02:56.414Z,1015.18
2023-12-17T03:03:56.411Z,1015.22
2023-12-17T03:04:56.387Z,1015.20
2023-12-17T03:05:56.313Z,1015.18
2023-12-17T03:06:56.285Z,1015.22
2023-12-17T03:07:56.275Z,1015.23
2023-12-17T03:08:56.274Z,1015.33
2023-12-17T03:09:56.343Z,1015.19
2023-12-17T03:10:56.264Z,1015.30
2023-12-17T03:11:57.195Z,1015.27
2023-12-17T03:12:56.256Z,1015.23
2023-12-17T03:13:56.239Z,1015.18
2023-12-17T03:14:56.260Z,1015.19
2023-12-17T03:15:56.228Z,1015.11
2023-12-17T03:16:56.216Z,1015.07
2023-12-17T03:17:56.279Z,1015.10
2023-12-17T03:18:56.848Z,1015.15
2023-12-17T03:19:56.354Z,1015.12
2023-12-17T03:20:56.193Z,1015.09
2023-12-17T03:21:56.206Z,1015.05
2023-12-17T03:22:56.185Z,1015.06
2023-12-17T03:23:56.234Z,1014.96
2023-12-17T03:24:56.192Z,1014.95
2023-12-17T03:25:56.154Z,1014.94
2023-12-17T03:26:56.140Z,1014.94
2023-12-17T03:27:56.158Z,1014.98
2023-12-17T03:28:56.159Z,1015.04
2023-12-17T03:29:56.268Z,1015.01
2023-12-17T03:30:56.156Z,1014.96
2023-12-17T03:31:56.181Z,1015.00
2023-12-17T03:32:56.208Z,1015.10
2023-12-17T03:33:56.226Z,1015.11
2023-12-17T03:34:56.129Z,1015.09
2023-12-17T03:35:56.138Z,1015.14
2023-12-17T03:36:56.081Z,1015.09
2023-12-17T03:37:56.071Z,1015.13
2023-12-17T03:38:56.117Z,1015.04
2023-12-17T03:39:56.081Z,1015.05
2023-12-17T03:40:56.060Z,1015.08
2023-12-17T03:41:56.063Z,1015.05
2023-12-17T03:42:56.066Z,1014.99
2023-12-17T03:43:56.028Z,1015.02
2023-12-17T03:44:56.083Z,1014.98
2023-12-17T03:45:56.021Z,1015.04
2023-12-17T03:46:56.017Z,1014.97
2023-12-17T03:47:56.131Z,1014.96
2023-12-17T03:48:56.147Z,1015.00
2023-12-17T03:49:56.056Z,1014.96
2023-12-17T03:50:56.032Z,1014.93
2023-12-17T03:51:56.005Z,1014.92
2023-12-17T03:52:55.969Z,1014.98
2023-12-17T03:53:56.031Z,1015.04
2023-12-17T03:54:55.976Z,1015.01
2023-12-17T03:55:55.957Z,1015.01
2023-12-17T03:56:55.976Z,1014.93
2023-12-17T03:57:55.938Z,1014.98
2023-12-17T03:58:55.932Z,1014.91
2023-12-17T03:59:55.962Z,1014.93
2023-12-17T04:00:55.964Z,1014.91
2023-12-17T04:01:55.919Z,1014.92
2023-12-17T04:02:56.003Z,1014.85
2023-12-17T04:03:56.001Z,1014.85
2023-12-17T04:04:55.915Z,1014.88
2023-12-17T04:05:55.995Z,1014.89
2023-12-17T04:06:55.888Z,1014.89
2023-12-17T04:07:55.892Z,1014.89
2023-12-17T04:08:56.232Z,1014.89
2023-12-17T04:09:55.860Z,1014.94
2023-12-17T04:10:55.857Z,1014.96
2023-12-17T04:11:55.902Z,1015.03
2023-12-17T04:12:55.858Z,1014.96
2023-12-17T04:13:55.830Z,1014.95
2023-12-17T04:14:55.856Z,1015.00
2023-12-17T04:15:55.823Z,1014.93
2023-12-17T04:16:55.879Z,1014.92
2023-12-17T04:17:55.931Z,1014.96
2023-12-17T04:18:55.951Z,1014.91
2023-12-17T04:19:55.824Z,1014.90
2023-12-17T04:20:55.792Z,1014.87
2023-12-17T04:21:55.780Z,1014.81
2023-12-17T04:22:55.827Z,1014.79
2023-12-17T04:23:55.833Z,1014.79
2023-12-17T04:24:55.759Z,1014.76
2023-12-17T04:25:55.760Z,1014.76
2023-12-17T04:26:55.778Z,1014.77
2023-12-17T04:27:55.741Z,1014.75
2023-12-17T04:28:55.759Z,1014.83
2023-12-17T04:29:55.763Z,1014.79
2023-12-17T04:30:55.755Z,1014.77
2023-12-17T04:31:55.712Z,1014.73
2023-12-17T04:32:55.965Z,1014.69
2023-12-17T04:33:55.839Z,1014.69
2023-12-17T04:34:55.690Z,1014.69
2023-12-17T04:35:55.700Z,1014.66
2023-12-17T04:36:55.686Z,1014.63
2023-12-17T04:37:55.673Z,1014.64
2023-12-17T04:38:55.677Z,1014.62
2023-12-17T04:39:55.725Z,1014.59
2023-12-17T04:40:55.662Z,1014.60
2023-12-17T04:41:55.711Z,1014.48
2023-12-17T04:42:55.635Z,1014.50
2023-12-17T04:43:55.631Z,1014.46
2023-12-17T04:44:55.630Z,1014.48
2023-12-17T04:45:55.647Z,1014.51
2023-12-17T04:46:55.623Z,1014.48
2023-12-17T04:47:55.774Z,1014.59
2023-12-17T04:48:55.741Z,1014.51
2023-12-17T04:49:55.615Z,1014.51
2023-12-17T04:50:55.659Z,1014.51
2023-12-17T04:51:55.610Z,1014.48
2023-12-17T04:52:55.575Z,1014.54
2023-12-17T04:53:55.609Z,1014.53
2023-12-17T04:54:55.573Z,1014.64
2023-12-17T04:55:55.576Z,1014.50
2023-12-17T04:56:55.823Z,1014.56
2023-12-17T04:57:55.558Z,1014.57
2023-12-17T04:58:55.549Z,1014.57
2023-12-17T04:59:55.562Z,1014.56
2023-12-17T05:00:55.561Z,1014.55
2023-12-17T05:01:55.537Z,1014.54
2023-12-17T05:02:55.591Z,1014.47
2023-12-17T05:03:55.588Z,1014.51
2023-12-17T05:04:55.584Z,1014.61
2023-12-17T05:05:55.544Z,1014.61
2023-12-17T05:06:55.568Z,1014.61
2023-12-17T05:07:55.476Z,1014.62
2023-12-17T05:08:55.507Z,1014.71
2023-12-17T05:09:55.460Z,1014.71
2023-12-17T05:10:55.456Z,1014.76
2023-12-17T05:11:55.531Z,1014.73
2023-12-17T05:12:55.457Z,1014.71
2023-12-17T05:13:55.439Z,1014.69
2023-12-17T05:14:55.509Z,1014.67
2023-12-17T05:15:55.434Z,1014.65
2023-12-17T05:16:55.413Z,1014.72
2023-12-17T05:17:55.576Z,1014.66
2023-12-17T05:18:55.548Z,1014.65
2023-12-17T05:19:55.381Z,1014.61
2023-12-17T05:20:55.401Z,1014.63
2023-12-17T05:21:55.372Z,1014.53
2023-12-17T05:22:55.362Z,1014.54
2023-12-17T05:23:55.389Z,1014.61
2023-12-17T05:24:55.348Z,1014.66
2023-12-17T05:25:55.386Z,1014.54
2023-12-17T05:26:55.377Z,1014.57
2023-12-17T05:27:55.372Z,1014.59
2023-12-17T05:28:55.334Z,1014.53
2023-12-17T05:29:55.392Z,1014.48
2023-12-17T05:30:55.442Z,1014.51
2023-12-17T05:31:55.363Z,1014.58
2023-12-17T05:32:55.452Z,1014.53
2023-12-17T05:33:55.441Z,1014.59
2023-12-17T05:34:55.300Z,1014.58
2023-12-17T05:35:55.479Z,1014.61
2023-12-17T05:36:55.278Z,1014.57
2023-12-17T05:37:55.270Z,1014.61
2023-12-17T05:38:55.292Z,1014.61
2023-12-17T05:39:55.274Z,1014.56
2023-12-17T05:40:55.325Z,1014.55
2023-12-17T05:41:55.266Z,1014.57
2023-12-17T05:42:55.247Z,1014.57
2023-12-17T05:43:55.257Z,1014.54
2023-12-17T05:44:55.300Z,1014.62
2023-12-17T05:45:58.907Z,1014.59
2023-12-17T05:46:55.256Z,1014.57
2023-12-17T05:47:55.328Z,1014.53
2023-12-17T05:48:55.442Z,1014.59
2023-12-17T05:49:55.410Z,1014.51
2023-12-17T05:50:55.265Z,1014.55
2023-12-17T05:51:55.254Z,1014.54
2023-12-17T05:52:55.171Z,1014.54
2023-12-17T05:53:55.217Z,1014.61
2023-12-17T05:54:55.155Z,1014.54
2023-12-17T05:55:55.152Z,1014.55
2023-12-17T05:56:55.224Z,1014.59
2023-12-17T05:57:55.136Z,1014.59
2023-12-17T05:58:55.136Z,1014.62
2023-12-17T05:59:55.161Z,1014.62
2023-12-17T06:00:55.142Z,1014.59
2023-12-17T06:01:55.272Z,1014.56
2023-12-17T06:02:55.143Z,1014.54
2023-12-17T06:03:55.149Z,1014.50
2023-12-17T06:04:55.090Z,1014.53
2023-12-17T06:05:55.134Z,1014.52
2023-12-17T06:06:55.300Z,1014.46
2023-12-17T06:07:55.096Z,1014.41
2023-12-17T06:08:55.087Z,1014.36
2023-12-17T06:09:55.057Z,1014.41
2023-12-17T06:10:55.050Z,1014.43
2023-12-17T06:11:55.523Z,1014.36
2023-12-17T06:12:55.042Z,1014.43
2023-12-17T06:13:55.031Z,1014.44
2023-12-17T06:14:55.049Z,1014.47
2023-12-17T06:15:55.052Z,1014.47
2023-12-17T06:16:55.312Z,1014.43
2023-12-17T06:17:55.259Z,1014.46
2023-12-17T06:18:55.169Z,1014.43
2023-12-17T06:19:55.019Z,1014.46
2023-12-17T06:20:55.011Z,1014.46
2023-12-17T06:21:55.003Z,1014.47
2023-12-17T06:22:54.980Z,1014.52
2023-12-17T06:23:54.991Z,1014.51
2023-12-17T06:24:54.959Z,1014.55
2023-12-17T06:25:54.983Z,1014.58
2023-12-17T06:26:55.073Z,1014.61
2023-12-17T06:27:54.963Z,1014.53
2023-12-17T06:28:55.702Z,1014.60
2023-12-17T06:29:54.944Z,1014.57
2023-12-17T06:30:54.991Z,1014.59
2023-12-17T06:31:54.949Z,1014.63
2023-12-17T06:32:55.104Z,1014.58
2023-12-17T06:33:55.573Z,1014.60
2023-12-17T06:34:54.909Z,1014.64
2023-12-17T06:35:54.904Z,1014.69
2023-12-17T06:36:54.893Z,1014.68
2023-12-17T06:37:54.882Z,1014.67
2023-12-17T06:38:54.932Z,1014.65
2023-12-17T06:39:54.873Z,1014.71
2023-12-17T06:40:54.866Z,1014.71
2023-12-17T06:41:54.888Z,1014.72
2023-12-17T06:42:54.856Z,1014.73
2023-12-17T06:43:54.974Z,1014.74
2023-12-17T06:44:54.914Z,1014.71
2023-12-17T06:45:54.832Z,1014.74
2023-12-17T06:46:54.830Z,1014.73
2023-12-17T06:47:54.892Z,1014.73
2023-12-17T06:48:54.869Z,1014.81
2023-12-17T06:49:54.866Z,1014.82
2023-12-17T06:50:54.859Z,1014.81
2023-12-17T06:51:54.797Z,1014.85
2023-12-17T06:52:54.779Z,1014.92
2023-12-17T06:53:54.941Z,1014.87
2023-12-17T06:54:54.776Z,1014.88
2023-12-17T06:55:54.770Z,1014.86
2023-12-17T06:56:54.871Z,1014.86
2023-12-17T06:57:54.746Z,1014.88
2023-12-17T06:58:54.783Z,1014.87
2023-12-17T06:59:54.834Z,1014.96
2023-12-17T07:00:54.801Z,1014.98
2023-12-17T07:01:54.716Z,1014.93
2023-12-17T07:02:54.787Z,1014.95
2023-12-17T07:03:54.856Z,1014.99
2023-12-17T07:04:54.806Z,1015.03
2023-12-17T07:05:54.841Z,1015.06
2023-12-17T07:06:54.691Z,1014.95
2023-12-17T07:07:54.695Z,1015.06
2023-12-17T07:08:54.727Z,1015.09
2023-12-17T07:09:54.668Z,1015.05
2023-12-17T07:10:54.659Z,1015.08
2023-12-17T07:11:54.739Z,1015.07
2023-12-17T07:12:54.640Z,1015.06
2023-12-17T07:13:54.632Z,1015.07
2023-12-17T07:14:54.714Z,1015.01
2023-12-17T07:15:54.625Z,1015.01
2023-12-17T07:16:56.838Z,1015.02
2023-12-17T07:17:54.734Z,1015.00
2023-12-17T07:18:54.777Z,1015.00
2023-12-17T07:19:54.741Z,1014.99
2023-12-17T07:20:54.833Z,1014.94
2023-12-17T07:21:54.611Z,1015.00
2023-12-17T07:22:54.582Z,1014.96
2023-12-17T07:23:54.596Z,1014.98
2023-12-17T07:24:54.560Z,1014.98
2023-12-17T07:25:54.572Z,1015.00
2023-12-17T07:26:54.737Z,1014.98
2023-12-17T07:27:54.574Z,1014.98
2023-12-17T07:28:54.570Z,1014.96
2023-12-17T07:29:54.541Z,1015.02
2023-12-17T07:30:54.562Z,1014.97
2023-12-17T07:31:54.556Z,1015.04
2023-12-17T07:32:54.777Z,1015.04
2023-12-17T07:33:54.658Z,1015.08
2023-12-17T07:34:55.215Z,1015.08
2023-12-17T07:35:54.573Z,1015.09
2023-12-17T07:36:54.490Z,1015.12
2023-12-17T07:37:54.562Z,1015.17
2023-12-17T07:38:54.561Z,1015.10
2023-12-17T07:39:54.479Z,1015.12
2023-12-17T07:40:54.578Z,1015.15
2023-12-17T07:41:54.500Z,1015.18
2023-12-17T07:42:55.060Z,1015.14
2023-12-17T07:43:54.445Z,1015.10
2023-12-17T07:44:54.493Z,1015.09
2023-12-17T07:45:54.434Z,1015.06
2023-12-17T07:46:54.604Z,1015.01
2023-12-17T07:47:54.476Z,1015.03
2023-12-17T07:48:54.532Z,1015.07
2023-12-17T07:49:54.482Z,1015.03
2023-12-17T07:50:54.424Z,1015.08
2023-12-17T07:51:54.731Z,1015.13
2023-12-17T07:52:54.383Z,1015.14
2023-12-17T07:53:54.424Z,1015.13
2023-12-17T07:54:54.598Z,1015.08
2023-12-17T07:55:54.377Z,1015.17
2023-12-17T07:56:54.384Z,1015.18
2023-12-17T07:57:54.366Z,1015.11
2023-12-17T07:58:54.769Z,1015.17
2023-12-17T07:59:54.367Z,1015.14
2023-12-17T08:00:54.408Z,1015.20
2023-12-17T08:01:54.378Z,1015.16
2023-12-17T08:02:54.401Z,1015.23
2023-12-17T08:03:54.397Z,1015.14
2023-12-17T08:04:54.451Z,1015.11
2023-12-17T08:05:54.445Z,1015.15
2023-12-17T08:06:54.319Z,1015.10
2023-12-17T08:07:54.312Z,1015.17
2023-12-17T08:08:54.305Z,1015.09
2023-12-17T08:09:54.271Z,1015.15
2023-12-17T08:10:54.298Z,1015.18
2023-12-17T08:11:54.371Z,1015.16
2023-12-17T08:12:54.312Z,1015.17
2023-12-17T08:13:54.244Z,1015.18
2023-12-17T08:14:54.254Z,1015.15
2023-12-17T08:15:54.250Z,1015.15
2023-12-17T08:16:54.776Z,1015.15
2023-12-17T08:17:54.381Z,1015.16
2023-12-17T08:18:54.272Z,1015.18
2023-12-17T08:19:54.200Z,1015.16
2023-12-17T08:20:54.259Z,1015.16
2023-12-17T08:21:54.470Z,1015.12
2023-12-17T08:22:54.185Z,1015.12
2023-12-17T08:23:54.275Z,1015.07
2023-12-17T08:24:54.185Z,1015.07
2023-12-17T08:25:54.172Z,1015.10
2023-12-17T08:26:54.500Z,1015.12
2023-12-17T08:27:54.165Z,1015.19
2023-12-17T08:28:54.144Z,1015.16
2023-12-17T08:29:54.237Z,1015.14
2023-12-17T08:30:54.244Z,1015.22
2023-12-17T08:31:54.176Z,1015.22
2023-12-17T08:32:54.218Z,1015.17
2023-12-17T08:33:54.462Z,1015.16
2023-12-17T08:34:54.128Z,1015.19
2023-12-17T08:35:54.140Z,1015.14
2023-12-17T08:36:54.125Z,1015.17
2023-12-17T08:37:54.093Z,1015.13
2023-12-17T08:38:54.101Z,1015.13
2023-12-17T08:39:54.171Z,1015.08
2023-12-17T08:40:54.065Z,1015.08
2023-12-17T08:41:54.122Z,1015.09
2023-12-17T08:42:54.098Z,1015.08
2023-12-17T08:43:54.053Z,1015.06
2023-12-17T08:44:54.154Z,1015.06
2023-12-17T08:45:54.086Z,1015.09
2023-12-17T08:46:54.259Z,1015.02
2023-12-17T08:47:54.362Z,1015.04
2023-12-17T08:48:54.433Z,1015.03
2023-12-17T08:49:54.078Z,1015.00
2023-12-17T08:50:54.024Z,1015.03
2023-12-17T08:51:53.987Z,1015.02
2023-12-17T08:52:54.560Z,1015.08
2023-12-17T08:53:54.019Z,1015.06
2023-12-17T08:54:53.968Z,1015.04
2023-12-17T08:55:53.989Z,1015.07
2023-12-17T08:56:53.979Z,1015.14
2023-12-17T08:57:53.957Z,1015.09
2023-12-17T08:58:53.968Z,1015.08
2023-12-17T08:59:53.980Z,1015.10
2023-12-17T09:00:54.016Z,1015.12
2023-12-17T09:01:53.917Z,1015.17
2023-12-17T09:02:53.987Z,1015.12
2023-12-17T09:03:56.789Z,1015.12
2023-12-17T09:04:53.934Z,1015.08
2023-12-17T09:05:53.944Z,1015.15
2023-12-17T09:06:53.897Z,1015.09
2023-12-17T09:07:53.994Z,1015.18
2023-12-17T09:08:54.000Z,1015.19
2023-12-17T09:09:53.885Z,1015.18
2023-12-17T09:10:53.874Z,1015.17
2023-12-17T09:11:53.894Z,1015.14
2023-12-17T09:12:53.887Z,1015.15
2023-12-17T09:13:53.850Z,1015.16
2023-12-17T09:14:53.929Z,1015.19
2023-12-17T09:15:53.848Z,1015.16
2023-12-17T09:16:53.839Z,1015.14
2023-12-17T09:17:53.974Z,1015.10
2023-12-17T09:18:53.949Z,1015.08
2023-12-17T09:19:53.848Z,1015.02
2023-12-17T09:20:53.875Z,1015.02
2023-12-17T09:21:53.797Z,1015.08
2023-12-17T09:22:53.789Z,1015.08
2023-12-17T09:23:53.808Z,1015.02
2023-12-17T09:24:53.850Z,1015.08
2023-12-17T09:25:53.791Z,1015.11
2023-12-17T09:26:54.205Z,1015.10
2023-12-17T09:27:53.782Z,1015.03
2023-12-17T09:28:53.754Z,1015.07
2023-12-17T09:29:53.830Z,1015.02
2023-12-17T09:30:53.909Z,1015.04
2023-12-17T09:31:53.724Z,1015.09
2023-12-17T09:32:53.892Z,1015.06
2023-12-17T09:33:53.781Z,1015.09
2023-12-17T09:34:53.760Z,1014.98
2023-12-17T09:35:53.744Z,1015.05
2023-12-17T09:36:53.699Z,1015.05
2023-12-17T09:37:53.691Z,1015.11
2023-12-17T09:38:53.736Z,1015.08
2023-12-17T09:39:53.672Z,1015.09
2023-12-17T09:40:53.666Z,1015.13
2023-12-17T09:41:53.683Z,1015.02
2023-12-17T09:42:53.910Z,1015.01
2023-12-17T09:43:53.694Z,1014.96
2023-12-17T09:44:53.700Z,1014.97
2023-12-17T09:45:53.631Z,1014.97
2023-12-17T09:46:53.632Z,1015.02
2023-12-17T09:47:53.728Z,1015.01
2023-12-17T09:48:53.751Z,1014.94
2023-12-17T09:49:53.638Z,1014.94
2023-12-17T09:50:53.619Z,1014.92
2023-12-17T09:51:53.747Z,1014.98
2023-12-17T09:52:53.588Z,1015.01
2023-12-17T09:53:53.671Z,1014.96
2023-12-17T09:54:53.571Z,1015.01
2023-12-17T09:55:53.561Z,1015.00
2023-12-17T09:56:53.580Z,1015.03
2023-12-17T09:57:53.544Z,1015.01
2023-12-17T09:58:53.542Z,1015.03
2023-12-17T09:59:53.662Z,1014.96
2023-12-17T10:00:53.710Z,1014.98
2023-12-17T10:01:53.685Z,1014.93
2023-12-17T10:02:53.540Z,1014.95
2023-12-17T10:03:53.565Z,1014.97
2023-12-17T10:04:53.536Z,1014.95
2023-12-17T10:05:53.611Z,1014.92
2023-12-17T10:06:53.536Z,1014.90
2023-12-17T10:07:53.481Z,1014.87
2023-12-17T10:08:53.517Z,1014.83
2023-12-17T10:09:53.471Z,1014.88
2023-12-17T10:10:53.705Z,1014.92
2023-12-17T10:11:53.470Z,1014.92
2023-12-17T10:12:53.482Z,1014.87
2023-12-17T10:13:53.445Z,1014.91
2023-12-17T10:14:53.465Z,1014.88
2023-12-17T10:15:53.464Z,1014.89
2023-12-17T10:16:53.439Z,1014.93
2023-12-17T10:17:53.772Z,1014.92
2023-12-17T10:18:53.515Z,1014.96
2023-12-17T10:19:53.549Z,1014.91
2023-12-17T10:20:53.461Z,1014.92
2023-12-17T10:21:53.426Z,1014.92
2023-12-17T10:22:53.395Z,1014.89
2023-12-17T10:23:53.433Z,1014.92
2023-12-17T10:24:53.377Z,1014.91
2023-12-17T10:25:53.373Z,1014.82
2023-12-17T10:26:53.963Z,1014.92
2023-12-17T10:27:53.356Z,1014.89
2023-12-17T10:28:53.351Z,1014.86
2023-12-17T10:29:53.526Z,1014.85
2023-12-17T10:30:53.454Z,1014.87
2023-12-17T10:31:53.363Z,1014.82
2023-12-17T10:32:53.470Z,1014.85
2023-12-17T10:33:53.493Z,1014.92
2023-12-17T10:34:53.805Z,1015.00
2023-12-17T10:35:53.325Z,1014.90
2023-12-17T10:36:53.297Z,1014.89
2023-12-17T10:37:53.313Z,1014.90
2023-12-17T10:38:53.347Z,1014.81
2023-12-17T10:39:53.363Z,1014.86
2023-12-17T10:40:54.270Z,1014.88
2023-12-17T10:41:53.379Z,1014.83
2023-12-17T10:42:53.262Z,1014.83
2023-12-17T10:43:53.280Z,1014.82
2023-12-17T10:44:53.324Z,1014.89
2023-12-17T10:45:53.242Z,1014.81
2023-12-17T10:46:53.257Z,1014.86
2023-12-17T10:47:53.322Z,1014.77
2023-12-17T10:48:53.412Z,1014.75
2023-12-17T10:49:53.308Z,1014.83
2023-12-17T10:50:53.296Z,1014.75
2023-12-17T10:51:53.202Z,1014.77
2023-12-17T10:52:53.203Z,1014.72
2023-12-17T10:53:53.217Z,1014.69
2023-12-17T10:54:53.254Z,1014.78
2023-12-17T10:55:53.231Z,1014.74
2023-12-17T10:56:53.271Z,1014.70
2023-12-17T10:57:53.165Z,1014.66
2023-12-17T10:58:53.219Z,1014.64
2023-12-17T10:59:53.153Z,1014.69
2023-12-17T11:00:53.268Z,1014.66
2023-12-17T11:01:53.172Z,1014.62
2023-12-17T11:02:53.218Z,1014.60
2023-12-17T11:03:53.234Z,1014.51
2023-12-17T11:04:53.127Z,1014.53
2023-12-17T11:05:53.145Z,1014.59
2023-12-17T11:06:53.110Z,1014.53
2023-12-17T11:07:53.185Z,1014.42
2023-12-17T11:08:53.097Z,1014.52
2023-12-17T11:09:53.722Z,1014.51
2023-12-17T11:10:53.090Z,1014.53
2023-12-17T11:11:53.094Z,1014.57
2023-12-17T11:12:53.187Z,1014.47
2023-12-17T11:13:53.066Z,1014.51
2023-12-17T11:14:53.082Z,1014.44
2023-12-17T11:15:53.552Z,1014.47
2023-12-17T11:16:53.034Z,1014.46
2023-12-17T11:17:53.550Z,1014.42
2023-12-17T11:18:53.138Z,1014.42
2023-12-17T11:19:53.092Z,1014.41
2023-12-17T11:20:53.056Z,1014.42
2023-12-17T11:21:53.002Z,1014.41
2023-12-17T11:22:54.368Z,1014.35
2023-12-17T11:23:53.029Z,1014.41
2023-12-17T11:24:52.985Z,1014.36
2023-12-17T11:25:53.016Z,1014.30
2023-12-17T11:26:53.077Z,1014.37
2023-12-17T11:27:52.974Z,1014.38
2023-12-17T11:28:52.950Z,1014.32
2023-12-17T11:29:53.031Z,1014.35
2023-12-17T11:30:53.038Z,1014.32
2023-12-17T11:31:52.960Z,1014.31
2023-12-17T11:32:53.099Z,1014.37
2023-12-17T11:33:53.039Z,1014.38
2023-12-17T11:34:53.065Z,1014.29
2023-12-17T11:35:52.992Z,1014.47
2023-12-17T11:36:52.936Z,1014.41
2023-12-17T11:37:52.890Z,1014.32
2023-12-17T11:38:52.906Z,1014.32
2023-12-17T11:39:53.270Z,1014.29
2023-12-17T11:40:52.973Z,1014.33
2023-12-17T11:41:52.921Z,1014.39
2023-12-17T11:42:52.873Z,1014.32
2023-12-17T11:43:52.861Z,1014.39
2023-12-17T11:44:52.985Z,1014.36
2023-12-17T11:45:52.864Z,1014.35
2023-12-17T11:46:52.904Z,1014.35
2023-12-17T11:47:53.088Z,1014.32
2023-12-17T11:48:52.907Z,1014.33
2023-12-17T11:49:52.852Z,1014.37
2023-12-17T11:50:52.837Z,1014.32
2023-12-17T11:51:52.885Z,1014.35
2023-12-17T11:52:52.807Z,1014.38
2023-12-17T11:53:52.837Z,1014.34
2023-12-17T11:54:52.788Z,1014.31
2023-12-17T11:55:52.791Z,1014.25
2023-12-17T11:56:52.903Z,1014.26
2023-12-17T11:57:53.227Z,1014.21
2023-12-17T11:58:52.761Z,1014.25
2023-12-17T11:59:53.131Z,1014.18
2023-12-17T12:00:52.758Z,1014.18
2023-12-17T12:01:52.738Z,1014.14
2023-12-17T12:02:53.610Z,1014.10
2023-12-17T12:03:52.753Z,1014.02
2023-12-17T12:04:52.717Z,1014.05
2023-12-17T12:05:52.789Z,1014.12